createdAt,value
2023-01-13T00:01:01.112Z,0.60
2023-01-13T00:03:30.235Z,0.70
2023-01-13T00:06:00.150Z,0.60
2023-01-13T00:08:27.865Z,0.77
2023-01-13T00:10:55.557Z,0.70
2023-01-13T00:13:26.607Z,0.90
2023-01-13T00:15:58.305Z,0.80
2023-01-13T00:18:26.984Z,0.70
2023-01-13T00:21:02.898Z,1.00
2023-01-13T00:23:31.703Z,1.08
2023-01-13T00:26:00.590Z,0.90
2023-01-13T00:28:28.642Z,1.27
2023-01-13T00:30:58.443Z,1.20
2023-01-13T00:33:26.792Z,1.58
2023-01-13T00:35:58.443Z,1.40
2023-01-13T00:38:27.992Z,1.20
2023-01-13T00:40:59.462Z,1.40
2023-01-13T00:43:26.751Z,1.60
2023-01-13T00:45:54.533Z,1.65
2023-01-13T00:48:23.932Z,1.52
2023-01-13T00:50:57.137Z,1.63
2023-01-13T00:53:25.726Z,1.83
2023-01-13T00:56:01.795Z,1.83
2023-01-13T00:58:29.665Z,2.20
2023-01-13T01:01:01.197Z,1.70
2023-01-13T01:03:29.247Z,1.90
2023-01-13T01:05:57.362Z,2.22
2023-01-13T01:08:25.166Z,2.20
2023-01-13T01:11:03.720Z,1.83
2023-01-13T01:13:31.634Z,1.98
2023-01-13T01:15:59.691Z,1.60
2023-01-13T01:18:27.470Z,1.85
2023-01-13T01:20:55.250Z,2.28
2023-01-13T01:23:23.003Z,1.80
2023-01-13T01:25:50.866Z,1.92
2023-01-13T01:28:20.667Z,1.85
2023-01-13T01:30:48.425Z,2.05
2023-01-13T01:33:16.825Z,2.47
2023-01-13T01:35:44.673Z,2.33
2023-01-13T01:38:12.379Z,2.55
2023-01-13T01:40:40.717Z,1.98
2023-01-13T01:43:32.838Z,1.95
2023-01-13T01:46:02.178Z,2.13
2023-01-13T01:48:33.635Z,1.98
2023-01-13T01:51:01.932Z,2.47
2023-01-13T01:53:33.273Z,2.30
2023-01-13T01:56:01.809Z,2.17
2023-01-13T01:58:34.112Z,2.55
2023-01-13T02:01:03.283Z,2.53
2023-01-13T02:03:31.277Z,2.35
2023-01-13T02:06:00.236Z,2.63
2023-01-13T02:08:28.166Z,2.47
2023-01-13T02:10:55.867Z,2.58
2023-01-13T02:13:23.149Z,2.20
2023-01-13T02:15:58.577Z,2.97
2023-01-13T02:18:43.939Z,2.40
2023-01-13T02:21:36.597Z,2.28
2023-01-13T02:24:45.495Z,2.75
2023-01-13T02:27:48.983Z,2.83
2023-01-13T02:30:44.663Z,2.80
2023-01-13T02:33:32.621Z,2.85
2023-01-13T02:36:06.885Z,2.65
2023-01-13T02:38:38.326Z,3.13
2023-01-13T02:41:31.009Z,2.95
2023-01-13T02:44:10.430Z,3.05
2023-01-13T02:46:49.744Z,2.63
2023-01-13T02:49:25.612Z,2.78
2023-01-13T02:51:56.171Z,2.97
2023-01-13T02:54:29.408Z,2.92
2023-01-13T02:57:00.439Z,3.08
2023-01-13T02:59:30.947Z,3.00
2023-01-13T03:02:00.605Z,2.67
2023-01-13T03:04:54.324Z,3.58
2023-01-13T03:07:45.713Z,3.25
2023-01-13T03:10:27.321Z,3.22
2023-01-13T03:13:03.416Z,4.25
2023-01-13T03:15:42.955Z,3.78
2023-01-13T03:18:20.933Z,3.42
2023-01-13T03:21:00.272Z,3.47
2023-01-13T03:23:34.281Z,3.58
2023-01-13T03:26:09.636Z,3.72
2023-01-13T03:28:42.928Z,3.78
2023-01-13T03:31:15.891Z,3.65
2023-01-13T03:33:49.560Z,3.97
2023-01-13T03:36:21.663Z,3.92
2023-01-13T03:38:55.051Z,4.18
2023-01-13T03:41:27.338Z,3.80
2023-01-13T03:44:17.761Z,3.90
2023-01-13T03:46:51.482Z,4.10
2023-01-13T03:49:25.597Z,4.88
2023-01-13T03:51:59.668Z,4.80
2023-01-13T03:54:31.891Z,5.10
2023-01-13T03:57:03.446Z,5.13
2023-01-13T03:59:35.295Z,5.68
2023-01-13T04:02:06.982Z,5.15
2023-01-13T04:04:39.745Z,3.53
2023-01-13T04:07:16.596Z,4.00
2023-01-13T04:09:51.134Z,2.63
2023-01-13T04:12:26.365Z,2.83
2023-01-13T04:14:55.983Z,2.70
2023-01-13T04:17:24.603Z,3.78
2023-01-13T04:19:53.676Z,4.05
2023-01-13T04:22:21.372Z,4.03
2023-01-13T04:24:49.071Z,5.00
2023-01-13T04:27:16.807Z,5.38
2023-01-13T04:29:44.516Z,5.20
2023-01-13T04:32:12.219Z,2.83
2023-01-13T04:34:39.995Z,2.60
2023-01-13T04:37:09.088Z,2.63
2023-01-13T04:39:36.836Z,2.40
2023-01-13T04:42:04.710Z,2.72
2023-01-13T04:44:35.266Z,2.78
2023-01-13T04:47:02.993Z,2.45
2023-01-13T04:49:30.833Z,2.92
2023-01-13T04:52:06.979Z,2.70
2023-01-13T04:54:37.388Z,2.78
2023-01-13T04:57:05.362Z,3.10
2023-01-13T04:59:34.690Z,2.90
2023-01-13T05:02:02.659Z,2.75
2023-01-13T05:04:30.444Z,2.95
2023-01-13T05:06:58.781Z,3.10
2023-01-13T05:09:26.464Z,3.25
2023-01-13T05:12:13.064Z,3.10
2023-01-13T05:14:58.378Z,3.30
2023-01-13T05:17:26.952Z,3.40
2023-01-13T05:19:54.697Z,3.60
2023-01-13T05:22:39.704Z,2.92
2023-01-13T05:25:25.767Z,3.00
2023-01-13T05:27:56.773Z,3.08
2023-01-13T05:30:27.112Z,3.10
2023-01-13T05:32:55.289Z,2.90
2023-01-13T05:35:23.361Z,2.95
2023-01-13T05:37:51.379Z,2.75
2023-01-13T05:40:37.563Z,2.83
2023-01-13T05:43:22.624Z,2.85
2023-01-13T05:45:52.688Z,2.80
2023-01-13T05:48:22.924Z,2.63
2023-01-13T05:50:51.183Z,2.53
2023-01-13T05:53:19.568Z,2.60
2023-01-13T05:55:47.569Z,2.40
2023-01-13T05:58:18.307Z,2.95
2023-01-13T06:00:46.756Z,3.00
2023-01-13T06:03:16.066Z,2.67
2023-01-13T06:05:44.123Z,2.70
2023-01-13T06:08:11.833Z,3.50
2023-01-13T06:10:39.605Z,2.83
2023-01-13T06:13:07.325Z,2.90
2023-01-13T06:15:36.395Z,2.88
2023-01-13T06:18:05.265Z,2.97
2023-01-13T06:20:33.436Z,5.40
2023-01-13T06:23:02.073Z,3.92
2023-01-13T06:25:40.904Z,2.92
2023-01-13T06:28:09.515Z,3.35
2023-01-13T06:30:42.369Z,2.60
2023-01-13T06:33:14.685Z,2.40
2023-01-13T06:35:45.395Z,3.08
2023-01-13T06:38:16.376Z,3.10
2023-01-13T06:40:45.760Z,2.70
2023-01-13T06:43:16.522Z,2.75
2023-01-13T06:45:52.049Z,2.75
2023-01-13T06:48:21.560Z,2.70
2023-01-13T06:50:49.301Z,2.60
2023-01-13T06:53:17.553Z,2.40
2023-01-13T06:55:45.250Z,2.53
2023-01-13T06:58:13.010Z,3.10
2023-01-13T07:00:40.729Z,2.58
2023-01-13T07:03:14.250Z,2.75
2023-01-13T07:05:44.040Z,2.90
2023-01-13T07:08:11.757Z,2.78
2023-01-13T07:10:39.608Z,2.67
2023-01-13T07:13:25.082Z,3.03
2023-01-13T07:15:57.279Z,2.55
2023-01-13T07:18:28.412Z,2.60
2023-01-13T07:20:57.461Z,2.90
2023-01-13T07:23:26.608Z,2.55
2023-01-13T07:25:56.766Z,2.90
2023-01-13T07:28:25.029Z,2.92
2023-01-13T07:30:53.346Z,2.42
2023-01-13T07:33:21.459Z,2.75
2023-01-13T07:35:58.164Z,3.28
2023-01-13T07:38:25.985Z,2.38
2023-01-13T07:40:54.068Z,2.78
2023-01-13T07:43:32.904Z,2.55
2023-01-13T07:46:02.868Z,3.00
2023-01-13T07:48:30.963Z,2.47
2023-01-13T07:51:02.708Z,2.75
2023-01-13T07:53:30.491Z,3.05
2023-01-13T07:55:59.058Z,2.50
2023-01-13T07:58:27.888Z,3.10
2023-01-13T08:00:56.453Z,2.92
2023-01-13T08:03:25.039Z,2.58
2023-01-13T08:05:53.005Z,2.78
2023-01-13T08:08:22.098Z,2.97
2023-01-13T08:10:49.790Z,2.67
2023-01-13T08:13:18.381Z,2.60
2023-01-13T08:15:47.292Z,2.72
2023-01-13T08:18:15.005Z,3.13
2023-01-13T08:20:42.748Z,2.65
2023-01-13T08:23:10.512Z,2.95
2023-01-13T08:25:39.530Z,3.47
2023-01-13T08:28:07.313Z,3.40
2023-01-13T08:30:35.136Z,3.20
2023-01-13T08:33:03.039Z,3.20
2023-01-13T08:35:30.731Z,2.92
2023-01-13T08:37:58.414Z,2.65
2023-01-13T08:40:26.256Z,2.83
2023-01-13T08:42:56.345Z,2.90
2023-01-13T08:45:24.046Z,3.03
2023-01-13T08:47:51.998Z,3.33
2023-01-13T08:50:20.329Z,2.92
2023-01-13T08:52:47.982Z,3.80
2023-01-13T08:55:15.821Z,3.40
2023-01-13T08:57:43.498Z,6.70
2023-01-13T09:00:14.287Z,4.78
2023-01-13T09:02:41.986Z,3.75
2023-01-13T09:05:10.508Z,3.20
2023-01-13T09:07:39.612Z,3.05
2023-01-13T09:10:10.474Z,3.55
2023-01-13T09:12:55.849Z,3.70
2023-01-13T09:15:24.868Z,3.45
2023-01-13T09:17:52.646Z,3.22
2023-01-13T09:20:20.397Z,3.15
2023-01-13T09:22:48.080Z,3.13
2023-01-13T09:25:15.898Z,3.40
2023-01-13T09:27:43.613Z,3.60
2023-01-13T09:30:12.437Z,3.28
2023-01-13T09:32:41.589Z,3.65
2023-01-13T09:35:09.177Z,3.47
2023-01-13T09:37:39.024Z,3.15
2023-01-13T09:40:10.664Z,3.53
2023-01-13T09:43:04.743Z,3.77
2023-01-13T09:45:38.510Z,3.75
2023-01-13T09:48:14.394Z,2.90
2023-01-13T09:50:55.950Z,3.72
2023-01-13T09:53:29.282Z,3.53
2023-01-13T09:55:57.364Z,3.25
2023-01-13T09:58:25.928Z,3.70
2023-01-13T10:01:07.419Z,3.95
2023-01-13T10:03:37.212Z,3.47
2023-01-13T10:06:14.953Z,4.03
2023-01-13T10:08:44.568Z,3.92
2023-01-13T10:11:36.564Z,3.72
2023-01-13T10:14:11.730Z,3.73
2023-01-13T10:16:45.640Z,3.92
2023-01-13T10:19:19.632Z,4.00
2023-01-13T10:22:04.851Z,3.80
2023-01-13T10:24:51.982Z,3.35
2023-01-13T10:27:29.884Z,3.45
2023-01-13T10:29:57.646Z,4.05
2023-01-13T10:32:25.347Z,3.78
2023-01-13T10:34:57.179Z,4.30
2023-01-13T10:37:26.917Z,4.18
2023-01-13T10:39:57.247Z,3.90
2023-01-13T10:42:25.742Z,4.15
2023-01-13T10:44:55.160Z,4.07
2023-01-13T10:47:26.206Z,4.00
2023-01-13T10:50:24.254Z,4.05
2023-01-13T10:53:01.025Z,4.45
2023-01-13T10:55:32.137Z,3.65
2023-01-13T10:58:13.221Z,3.95
2023-01-13T11:00:41.089Z,4.30
2023-01-13T11:03:16.533Z,3.85
2023-01-13T11:05:54.496Z,4.05
2023-01-13T11:08:25.454Z,4.10
2023-01-13T11:10:56.265Z,4.05
2023-01-13T11:13:31.651Z,4.20
2023-01-13T11:16:04.683Z,3.45
2023-01-13T11:18:43.546Z,3.95
2023-01-13T11:21:21.266Z,4.25
2023-01-13T11:23:57.201Z,3.78
2023-01-13T11:26:42.155Z,4.38
2023-01-13T11:29:17.084Z,3.70
2023-01-13T11:31:49.936Z,4.43
2023-01-13T11:34:29.139Z,5.05
2023-01-13T11:37:00.429Z,4.90
2023-01-13T11:39:40.073Z,5.45
2023-01-13T11:42:24.504Z,4.85
2023-01-13T11:45:02.902Z,4.07
2023-01-13T11:47:31.947Z,4.25
2023-01-13T11:50:00.334Z,4.22
2023-01-13T11:52:48.536Z,3.85
2023-01-13T11:55:30.846Z,3.60
2023-01-13T11:58:12.331Z,4.35
2023-01-13T12:01:06.431Z,3.90
2023-01-13T12:03:39.345Z,3.30
2023-01-13T12:06:18.543Z,4.00
2023-01-13T12:09:03.552Z,3.72
2023-01-13T12:11:59.220Z,3.92
2023-01-13T12:14:37.595Z,3.78
2023-01-13T12:17:17.092Z,3.75
2023-01-13T12:19:50.610Z,4.13
2023-01-13T12:22:24.651Z,4.03
2023-01-13T12:25:01.199Z,4.75
2023-01-13T12:27:40.113Z,4.82
2023-01-13T12:30:23.330Z,4.13
2023-01-13T12:32:54.457Z,3.90
2023-01-13T12:35:36.065Z,3.55
2023-01-13T12:38:09.545Z,3.13
2023-01-13T12:40:52.427Z,4.13
2023-01-13T12:43:39.756Z,3.60
2023-01-13T12:46:58.202Z,3.85
2023-01-13T12:49:28.894Z,3.60
2023-01-13T12:52:18.342Z,3.70
2023-01-13T12:55:17.416Z,3.70
2023-01-13T12:58:15.553Z,3.53
2023-01-13T13:01:12.697Z,3.55
2023-01-13T13:03:40.855Z,3.90
2023-01-13T13:06:17.579Z,3.95
2023-01-13T13:08:51.772Z,3.70
2023-01-13T13:11:41.032Z,3.80
2023-01-13T13:14:13.071Z,3.63
2023-01-13T13:16:49.701Z,3.85
2023-01-13T13:19:42.168Z,4.15
2023-01-13T13:22:39.153Z,3.67
2023-01-13T13:25:27.014Z,3.65
2023-01-13T13:28:20.065Z,4.70
2023-01-13T13:31:06.436Z,4.07
2023-01-13T13:33:59.513Z,4.63
2023-01-13T13:36:58.586Z,4.30
2023-01-13T13:39:47.512Z,4.32
2023-01-13T13:42:50.930Z,4.20
2023-01-13T13:45:41.594Z,4.60
2023-01-13T13:48:25.507Z,5.05
2023-01-13T13:50:57.980Z,4.22
2023-01-13T13:55:58.573Z,3.72
2023-01-13T13:58:28.419Z,3.58
2023-01-13T14:00:58.162Z,4.60
2023-01-13T14:03:31.496Z,4.07
2023-01-13T14:06:01.124Z,3.90
2023-01-13T14:08:30.404Z,4.07
2023-01-13T14:10:58.484Z,4.85
2023-01-13T14:13:28.368Z,4.35
2023-01-13T14:15:59.031Z,4.30
2023-01-13T14:18:30.383Z,4.20
2023-01-13T14:21:01.340Z,5.15
2023-01-13T14:23:31.377Z,6.00
2023-01-13T14:26:03.865Z,5.00
2023-01-13T14:31:02.551Z,4.90
2023-01-13T14:33:38.812Z,6.28
2023-01-13T14:36:19.767Z,7.55
2023-01-13T14:38:49.274Z,9.25
2023-01-13T14:41:25.183Z,5.90
2023-01-13T14:43:55.837Z,5.13
2023-01-13T14:46:25.591Z,3.90
2023-01-13T14:49:01.906Z,4.40
2023-01-13T14:51:32.075Z,4.38
2023-01-13T14:53:59.882Z,4.10
2023-01-13T14:56:42.602Z,4.57
2023-01-13T15:01:56.891Z,6.70
2023-01-13T15:04:31.983Z,7.55
2023-01-13T15:07:01.325Z,5.72
2023-01-13T15:09:34.739Z,5.63
2023-01-13T15:12:16.999Z,7.90
2023-01-13T15:14:44.790Z,7.68
2023-01-13T15:17:17.676Z,4.78
2023-01-13T15:19:46.845Z,4.03
2023-01-13T15:22:14.618Z,4.30
2023-01-13T15:24:42.503Z,3.70
2023-01-13T15:27:18.928Z,3.60
2023-01-13T15:29:47.025Z,3.67
2023-01-13T15:32:19.435Z,3.97
2023-01-13T15:34:49.202Z,10.75
2023-01-13T15:37:19.461Z,11.52
2023-01-13T15:39:47.353Z,11.43
2023-01-13T15:42:37.684Z,6.50
2023-01-13T15:45:23.495Z,3.92
2023-01-13T15:47:51.258Z,5.07
2023-01-13T15:50:23.000Z,3.40
2023-01-13T15:52:50.855Z,3.30
2023-01-13T15:55:18.640Z,4.70
2023-01-13T15:57:49.233Z,4.03
2023-01-13T16:00:20.246Z,4.50
2023-01-13T16:02:48.228Z,6.30
2023-01-13T16:05:16.134Z,5.22
2023-01-13T16:07:45.319Z,3.05
2023-01-13T16:10:17.958Z,3.20
2023-01-13T16:12:45.813Z,2.95
2023-01-13T16:15:15.627Z,3.45
2023-01-13T16:17:44.602Z,3.35
2023-01-13T16:20:17.180Z,6.55
2023-01-13T16:22:46.642Z,5.50
2023-01-13T16:25:18.181Z,6.25
2023-01-13T16:27:46.349Z,4.40
2023-01-13T16:30:24.455Z,3.97
2023-01-13T16:32:52.393Z,3.58
2023-01-13T16:35:20.409Z,3.78
2023-01-13T16:37:50.549Z,3.83
2023-01-13T16:40:23.605Z,3.85
2023-01-13T16:42:51.553Z,4.60
2023-01-13T16:45:20.946Z,4.00
2023-01-13T16:47:48.966Z,3.85
2023-01-13T16:50:23.684Z,4.63
2023-01-13T16:52:52.807Z,4.78
2023-01-13T16:55:20.550Z,5.80
2023-01-13T16:57:48.416Z,5.07
2023-01-13T17:00:17.472Z,5.10
2023-01-13T17:02:45.459Z,4.38
2023-01-13T17:05:14.737Z,3.38
2023-01-13T17:07:44.224Z,3.35
2023-01-13T17:10:17.545Z,3.53
2023-01-13T17:12:45.810Z,3.35
2023-01-13T17:15:14.275Z,3.25
2023-01-13T17:17:44.053Z,3.60
2023-01-13T17:20:14.137Z,4.15
2023-01-13T17:22:42.413Z,4.70
2023-01-13T17:25:13.105Z,4.53
2023-01-13T17:27:42.879Z,3.78
2023-01-13T17:30:14.248Z,3.55
2023-01-13T17:32:42.637Z,6.40
2023-01-13T17:35:12.861Z,6.75
2023-01-13T17:37:41.156Z,9.90
2023-01-13T17:40:10.581Z,6.10
2023-01-13T17:42:38.635Z,4.28
2023-01-13T17:45:11.316Z,3.72
2023-01-13T17:47:39.122Z,3.53
2023-01-13T17:50:07.627Z,3.30
2023-01-13T17:52:35.657Z,3.42
2023-01-13T17:55:03.466Z,3.05
2023-01-13T17:57:31.183Z,3.97
2023-01-13T17:59:59.596Z,3.20
2023-01-13T18:02:30.181Z,3.08
2023-01-13T18:04:59.238Z,3.63
2023-01-13T18:07:26.977Z,3.28
2023-01-13T18:09:54.684Z,2.92
2023-01-13T18:12:22.600Z,6.22
2023-01-13T18:14:50.396Z,8.57
2023-01-13T18:17:18.363Z,7.13
2023-01-13T18:20:04.949Z,6.97
2023-01-13T18:22:50.191Z,5.47
2023-01-13T18:25:35.271Z,5.43
2023-01-13T18:28:03.204Z,4.43
2023-01-13T18:30:30.937Z,4.30
2023-01-13T18:32:58.764Z,4.05
2023-01-13T18:35:27.883Z,4.53
2023-01-13T18:37:55.689Z,5.13
2023-01-13T18:40:23.538Z,6.30
2023-01-13T18:42:54.426Z,5.60
2023-01-13T18:45:25.512Z,4.32
2023-01-13T18:47:54.554Z,4.63
2023-01-13T18:50:23.068Z,4.32
2023-01-13T18:52:52.607Z,4.32
2023-01-13T18:55:20.803Z,5.20
2023-01-13T18:57:48.862Z,3.97
2023-01-13T19:00:19.076Z,4.07
2023-01-13T19:02:48.246Z,4.07
2023-01-13T19:05:16.151Z,4.32
2023-01-13T19:07:50.288Z,4.28
2023-01-13T19:10:20.149Z,4.28
2023-01-13T19:12:47.976Z,3.85
2023-01-13T19:15:16.153Z,6.43
2023-01-13T19:17:45.038Z,7.90
2023-01-13T19:20:13.559Z,6.80
2023-01-13T19:22:41.364Z,5.63
2023-01-13T19:25:09.523Z,5.53
2023-01-13T19:27:39.903Z,7.28
2023-01-13T19:30:09.192Z,5.88
2023-01-13T19:32:37.228Z,4.90
2023-01-13T19:35:05.688Z,5.60
2023-01-13T19:37:34.323Z,4.78
2023-01-13T19:40:04.725Z,5.47
2023-01-13T19:42:49.974Z,5.25
2023-01-13T19:45:29.363Z,6.63
2023-01-13T19:47:58.105Z,3.78
2023-01-13T19:50:26.585Z,3.97
2023-01-13T19:52:54.532Z,4.38
2023-01-13T19:55:22.522Z,4.35
2023-01-13T19:57:50.460Z,4.47
2023-01-13T20:00:21.025Z,4.00
2023-01-13T20:02:51.875Z,4.07
2023-01-13T20:05:22.656Z,3.50
2023-01-13T20:07:51.680Z,4.20
2023-01-13T20:10:21.330Z,3.95
2023-01-13T20:12:49.305Z,4.00
2023-01-13T20:15:17.249Z,3.80
2023-01-13T20:17:46.456Z,4.13
2023-01-13T20:20:15.802Z,3.70
2023-01-13T20:22:44.047Z,3.70
2023-01-13T20:25:13.346Z,4.60
2023-01-13T20:27:41.443Z,6.10
2023-01-13T20:30:13.426Z,5.30
2023-01-13T20:32:41.746Z,5.70
2023-01-13T20:35:12.111Z,3.88
2023-01-13T20:37:41.591Z,3.97
2023-01-13T20:40:14.463Z,3.78
2023-01-13T20:42:44.943Z,3.78
2023-01-13T20:45:17.163Z,4.32
2023-01-13T20:47:46.201Z,4.35
2023-01-13T20:50:16.681Z,4.05
2023-01-13T20:52:45.144Z,4.10
2023-01-13T20:55:13.619Z,3.80
2023-01-13T20:57:41.778Z,4.13
2023-01-13T21:00:11.326Z,4.15
2023-01-13T21:02:40.149Z,3.67
2023-01-13T21:05:08.628Z,3.85
2023-01-13T21:07:37.883Z,3.90
2023-01-13T21:10:06.597Z,3.55
2023-01-13T21:12:51.878Z,3.58
2023-01-13T21:15:21.575Z,3.83
2023-01-13T21:18:08.641Z,3.78
2023-01-13T21:20:38.108Z,4.30
2023-01-13T21:23:08.146Z,3.58
2023-01-13T21:25:37.365Z,4.22
2023-01-13T21:28:07.516Z,3.90
2023-01-13T21:30:36.199Z,3.75
2023-01-13T21:33:06.252Z,3.20
2023-01-13T21:35:34.312Z,3.83
2023-01-13T21:38:02.395Z,3.92
2023-01-13T21:40:31.634Z,4.68
2023-01-13T21:43:16.852Z,4.32
2023-01-13T21:46:04.181Z,4.00
2023-01-13T21:48:33.224Z,4.50
2023-01-13T21:51:01.510Z,3.78
2023-01-13T21:53:29.376Z,3.90
2023-01-13T21:55:58.738Z,4.20
2023-01-13T21:58:26.594Z,4.25
2023-01-13T22:00:54.673Z,3.97
2023-01-13T22:03:22.664Z,4.25
2023-01-13T22:05:54.879Z,4.05
2023-01-13T22:08:22.739Z,4.10
2023-01-13T22:10:58.540Z,4.35
2023-01-13T22:13:51.247Z,4.65
2023-01-13T22:16:19.772Z,4.18
2023-01-13T22:18:47.591Z,4.15
2023-01-13T22:21:15.388Z,4.35
2023-01-13T22:23:43.195Z,4.28
2023-01-13T22:26:11.684Z,4.65
2023-01-13T22:28:44.183Z,4.97
2023-01-13T22:33:41.204Z,3.92
2023-01-13T22:36:10.066Z,4.82
2023-01-13T22:38:38.032Z,4.22
2023-01-13T22:41:07.990Z,5.00
2023-01-13T22:43:36.592Z,4.25
2023-01-13T22:46:08.013Z,4.78
2023-01-13T22:48:36.772Z,4.60
2023-01-13T22:51:08.590Z,4.90
2023-01-13T22:53:37.104Z,4.47
2023-01-13T22:56:05.758Z,4.28
2023-01-13T22:58:33.788Z,4.65
2023-01-13T23:01:11.068Z,5.22
2023-01-13T23:03:38.981Z,5.43
2023-01-13T23:06:07.649Z,5.15
2023-01-13T23:08:36.189Z,5.15
2023-01-13T23:11:05.469Z,4.93
2023-01-13T23:13:33.528Z,5.35
2023-01-13T23:16:04.902Z,4.93
2023-01-13T23:18:34.488Z,4.85
2023-01-13T23:21:06.050Z,4.82
2023-01-13T23:23:34.841Z,5.07
2023-01-13T23:26:02.927Z,5.45
2023-01-13T23:28:31.477Z,5.05
2023-01-13T23:30:59.348Z,4.95
2023-01-13T23:33:27.439Z,6.18
2023-01-13T23:36:01.497Z,5.05
2023-01-13T23:38:29.938Z,5.38
2023-01-13T23:40:57.887Z,5.03
2023-01-13T23:43:26.860Z,5.68
2023-01-13T23:46:02.737Z,4.50
2023-01-13T23:48:30.768Z,5.43
2023-01-13T23:51:01.037Z,5.10
2023-01-13T23:53:33.629Z,5.10
2023-01-13T23:56:02.324Z,5.07
2023-01-13T23:58:30.762Z,5.10
